sensor_id;sensor_type;location;lat;lon;timestamp;temperature;humidity
4374;DHT22;2201;51.100;6.814;2024-01-15T00:02:13;1.50;98.20
4374;DHT22;2201;51.100;6.814;2024-01-15T00:04:58;1.50;98.20
4374;DHT22;2201;51.100;6.814;2024-01-15T00:07:35;1.50;98.20
4374;DHT22;2201;51.100;6.814;2024-01-15T00:10:27;1.50;98.20
4374;DHT22;2201;51.100;6.814;2024-01-15T00:13:26;1.50;98.20
4374;DHT22;2201;51.100;6.814;2024-01-15T00:23:27;1.50;98.20
4374;DHT22;2201;51.100;6.814;2024-01-15T03:22:12;1.60;98.20
4374;DHT22;2201;51.100;6.814;2024-01-15T03:24:42;1.60;98.20
4374;DHT22;2201;51.100;6.814;2024-01-15T03:27:08;1.60;98.20
4374;DHT22;2201;51.100;6.814;2024-01-15T03:29:35;1.60;98.20
4374;DHT22;2201;51.100;6.814;2024-01-15T03:32:07;1.60;98.20
4374;DHT22;2201;51.100;6.814;2024-01-15T03:34:37;1.60;98.20
4374;DHT22;2201;51.100;6.814;2024-01-15T03:37:21;1.60;98.20
4374;DHT22;2201;51.100;6.814;2024-01-15T03:49:38;1.70;98.20
4374;DHT22;2201;51.100;6.814;2024-01-15T03:52:20;1.70;98.20
4374;DHT22;2201;51.100;6.814;2024-01-15T03:54:51;1.70;98.20
4374;DHT22;2201;51.100;6.814;2024-01-15T04:02:55;1.70;98.20
4374;DHT22;2201;51.100;6.814;2024-01-15T04:05:27;1.70;98.20
4374;DHT22;2201;51.100;6.814;2024-01-15T04:08:18;1.70;98.20
4374;DHT22;2201;51.100;6.814;2024-01-15T04:18:05;1.70;98.20
4374;DHT22;2201;51.100;6.814;2024-01-15T04:23:51;1.70;98.20
4374;DHT22;2201;51.100;6.814;2024-01-15T04:26:18;1.70;98.20
4374;DHT22;2201;51.100;6.814;2024-01-15T04:28:44;1.70;98.20
4374;DHT22;2201;51.100;6.814;2024-01-15T04:31:21;1.70;98.20
4374;DHT22;2201;51.100;6.814;2024-01-15T04:33:48;1.70;98.20
4374;DHT22;2201;51.100;6.814;2024-01-15T04:36:15;1.70;98.20
4374;DHT22;2201;51.100;6.814;2024-01-15T04:42:03;1.70;98.20
4374;DHT22;2201;51.100;6.814;2024-01-15T04:44:50;1.70;98.20
4374;DHT22;2201;51.100;6.814;2024-01-15T04:47:18;1.70;98.20
4374;DHT22;2201;51.100;6.814;2024-01-15T04:49:45;1.70;98.20
4374;DHT22;2201;51.100;6.814;2024-01-15T04:52:12;1.70;98.20
4374;DHT22;2201;51.100;6.814;2024-01-15T04:54:41;1.70;98.20
4374;DHT22;2201;51.100;6.814;2024-01-15T04:57:12;1.70;98.20
4374;DHT22;2201;51.100;6.814;2024-01-15T04:59:41;1.70;98.20
4374;DHT22;2201;51.100;6.814;2024-01-15T05:02:15;1.70;98.20
4374;DHT22;2201;51.100;6.814;2024-01-15T05:04:42;1.70;98.20
4374;DHT22;2201;51.100;6.814;2024-01-15T05:07:10;1.80;98.20
4374;DHT22;2201;51.100;6.814;2024-01-15T05:09:37;1.80;98.20
4374;DHT22;2201;51.100;6.814;2024-01-15T05:12:05;1.80;98.20
4374;DHT22;2201;51.100;6.814;2024-01-15T05:14:38;1.80;98.20
4374;DHT22;2201;51.100;6.814;2024-01-15T05:17:05;1.80;98.20
4374;DHT22;2201;51.100;6.814;2024-01-15T05:19:32;1.80;98.20
4374;DHT22;2201;51.100;6.814;2024-01-15T05:21:59;1.80;98.20
4374;DHT22;2201;51.100;6.814;2024-01-15T05:24:26;1.80;98.20
4374;DHT22;2201;51.100;6.814;2024-01-15T05:26:53;1.80;98.20
4374;DHT22;2201;51.100;6.814;2024-01-15T05:29:20;1.80;98.20
4374;DHT22;2201;51.100;6.814;2024-01-15T05:31:48;1.80;98.20
4374;DHT22;2201;51.100;6.814;2024-01-15T05:34:15;1.80;98.20
4374;DHT22;2201;51.100;6.814;2024-01-15T05:36:42;1.80;98.20
4374;DHT22;2201;51.100;6.814;2024-01-15T05:39:12;1.80;98.20
4374;DHT22;2201;51.100;6.814;2024-01-15T05:41:39;1.80;98.20
4374;DHT22;2201;51.100;6.814;2024-01-15T05:44:06;1.80;98.20
4374;DHT22;2201;51.100;6.814;2024-01-15T05:46:36;1.80;98.20
4374;DHT22;2201;51.100;6.814;2024-01-15T05:49:04;1.80;98.20
4374;DHT22;2201;51.100;6.814;2024-01-15T05:52:01;1.80;98.20
4374;DHT22;2201;51.100;6.814;2024-01-15T05:54:29;1.80;98.20
4374;DHT22;2201;51.100;6.814;2024-01-15T05:56:56;1.80;98.20
4374;DHT22;2201;51.100;6.814;2024-01-15T05:59:23;1.80;98.20
4374;DHT22;2201;51.100;6.814;2024-01-15T06:01:51;1.80;98.20
4374;DHT22;2201;51.100;6.814;2024-01-15T06:04:22;1.80;98.20
4374;DHT22;2201;51.100;6.814;2024-01-15T06:06:49;1.80;98.20
4374;DHT22;2201;51.100;6.814;2024-01-15T06:09:16;1.80;98.20
4374;DHT22;2201;51.100;6.814;2024-01-15T06:11:49;1.80;98.20
4374;DHT22;2201;51.100;6.814;2024-01-15T06:14:22;1.80;98.20
4374;DHT22;2201;51.100;6.814;2024-01-15T06:16:52;1.80;98.20
4374;DHT22;2201;51.100;6.814;2024-01-15T06:19:20;1.80;98.20
4374;DHT22;2201;51.100;6.814;2024-01-15T06:25:44;1.90;98.20
4374;DHT22;2201;51.100;6.814;2024-01-15T06:36:14;1.90;98.20
4374;DHT22;2201;51.100;6.814;2024-01-15T06:38:42;1.90;98.20
4374;DHT22;2201;51.100;6.814;2024-01-15T06:41:14;1.90;98.20
4374;DHT22;2201;51.100;6.814;2024-01-15T06:43:41;1.90;98.20
4374;DHT22;2201;51.100;6.814;2024-01-15T06:46:31;1.90;98.20
4374;DHT22;2201;51.100;6.814;2024-01-15T06:49:01;1.90;98.20
4374;DHT22;2201;51.100;6.814;2024-01-15T06:51:30;1.90;98.20
4374;DHT22;2201;51.100;6.814;2024-01-15T06:54:15;1.90;98.20
4374;DHT22;2201;51.100;6.814;2024-01-15T06:57:23;1.90;98.20
4374;DHT22;2201;51.100;6.814;2024-01-15T07:00:06;1.90;98.20
4374;DHT22;2201;51.100;6.814;2024-01-15T07:03:09;1.80;98.20
4374;DHT22;2201;51.100;6.814;2024-01-15T07:05:54;1.80;98.20
4374;DHT22;2201;51.100;6.814;2024-01-15T07:11:58;1.90;98.20
4374;DHT22;2201;51.100;6.814;2024-01-15T07:14:46;1.90;98.20
4374;DHT22;2201;51.100;6.814;2024-01-15T07:17:37;1.90;98.20
4374;DHT22;2201;51.100;6.814;2024-01-15T07:20:13;1.90;98.20
4374;DHT22;2201;51.100;6.814;2024-01-15T07:22:52;1.90;98.20
4374;DHT22;2201;51.100;6.814;2024-01-15T07:25:46;1.90;98.20
4374;DHT22;2201;51.100;6.814;2024-01-15T07:28:41;1.90;98.20
4374;DHT22;2201;51.100;6.814;2024-01-15T07:36:36;1.90;98.20
4374;DHT22;2201;51.100;6.814;2024-01-15T07:39:25;1.90;98.20
4374;DHT22;2201;51.100;6.814;2024-01-15T07:41:57;1.90;98.20
4374;DHT22;2201;51.100;6.814;2024-01-15T07:44:26;1.90;98.20
4374;DHT22;2201;51.100;6.814;2024-01-15T07:46:58;1.90;98.20
4374;DHT22;2201;51.100;6.814;2024-01-15T07:49:27;1.90;98.20
4374;DHT22;2201;51.100;6.814;2024-01-15T07:51:57;1.90;98.20
4374;DHT22;2201;51.100;6.814;2024-01-15T07:54:24;1.90;98.20
4374;DHT22;2201;51.100;6.814;2024-01-15T07:56:58;1.90;98.20
4374;DHT22;2201;51.100;6.814;2024-01-15T07:59:28;2.00;98.20
4374;DHT22;2201;51.100;6.814;2024-01-15T08:01:58;2.00;98.20
4374;DHT22;2201;51.100;6.814;2024-01-15T08:04:25;2.00;98.20
4374;DHT22;2201;51.100;6.814;2024-01-15T08:06:53;2.00;98.20
4374;DHT22;2201;51.100;6.814;2024-01-15T08:09:24;2.00;98.20
4374;DHT22;2201;51.100;6.814;2024-01-15T08:11:53;2.00;98.20
4374;DHT22;2201;51.100;6.814;2024-01-15T08:14:21;2.00;98.20
4374;DHT22;2201;51.100;6.814;2024-01-15T08:16:47;2.00;98.20
4374;DHT22;2201;51.100;6.814;2024-01-15T08:19:14;2.00;98.20
4374;DHT22;2201;51.100;6.814;2024-01-15T08:21:42;2.00;98.20
4374;DHT22;2201;51.100;6.814;2024-01-15T08:24:09;2.10;98.20
4374;DHT22;2201;51.100;6.814;2024-01-15T08:26:37;2.10;98.20
4374;DHT22;2201;51.100;6.814;2024-01-15T08:29:04;2.10;98.20
4374;DHT22;2201;51.100;6.814;2024-01-15T08:31:41;2.10;98.20
4374;DHT22;2201;51.100;6.814;2024-01-15T08:34:08;2.10;98.20
4374;DHT22;2201;51.100;6.814;2024-01-15T08:36:35;2.00;98.20
4374;DHT22;2201;51.100;6.814;2024-01-15T08:39:02;2.00;98.20
4374;DHT22;2201;51.100;6.814;2024-01-15T08:41:31;2.00;98.20
4374;DHT22;2201;51.100;6.814;2024-01-15T08:44:05;2.00;98.20
4374;DHT22;2201;51.100;6.814;2024-01-15T08:46:34;1.90;98.20
4374;DHT22;2201;51.100;6.814;2024-01-15T08:49:15;1.90;98.20
4374;DHT22;2201;51.100;6.814;2024-01-15T08:51:48;1.90;98.20
4374;DHT22;2201;51.100;6.814;2024-01-15T08:54:15;1.90;98.20
4374;DHT22;2201;51.100;6.814;2024-01-15T08:56:43;1.80;98.20
4374;DHT22;2201;51.100;6.814;2024-01-15T08:59:15;1.80;98.20
4374;DHT22;2201;51.100;6.814;2024-01-15T09:02:00;1.80;98.20
4374;DHT22;2201;51.100;6.814;2024-01-15T09:04:48;1.70;98.20
4374;DHT22;2201;51.100;6.814;2024-01-15T09:07:42;1.70;98.20
4374;DHT22;2201;51.100;6.814;2024-01-15T09:10:30;1.70;98.20
4374;DHT22;2201;51.100;6.814;2024-01-15T09:12:59;1.70;98.20
4374;DHT22;2201;51.100;6.814;2024-01-15T09:15:37;1.70;98.20
4374;DHT22;2201;51.100;6.814;2024-01-15T09:18:08;1.70;98.20
4374;DHT22;2201;51.100;6.814;2024-01-15T09:24:46;1.70;98.20
4374;DHT22;2201;51.100;6.814;2024-01-15T09:28:19;1.70;98.20
4374;DHT22;2201;51.100;6.814;2024-01-15T09:47:54;1.70;98.20
4374;DHT22;2201;51.100;6.814;2024-01-15T09:50:26;1.70;98.20
4374;DHT22;2201;51.100;6.814;2024-01-15T09:52:56;1.70;98.20
4374;DHT22;2201;51.100;6.814;2024-01-15T09:55:25;1.70;98.20
4374;DHT22;2201;51.100;6.814;2024-01-15T09:57:52;1.80;98.20
4374;DHT22;2201;51.100;6.814;2024-01-15T10:00:21;1.80;98.20
4374;DHT22;2201;51.100;6.814;2024-01-15T10:02:51;1.90;98.20
4374;DHT22;2201;51.100;6.814;2024-01-15T10:05:18;1.90;98.20
4374;DHT22;2201;51.100;6.814;2024-01-15T10:07:46;1.90;98.20
4374;DHT22;2201;51.100;6.814;2024-01-15T10:10:15;1.90;98.20
4374;DHT22;2201;51.100;6.814;2024-01-15T10:12:45;1.90;98.20
4374;DHT22;2201;51.100;6.814;2024-01-15T10:15:12;1.90;98.20
4374;DHT22;2201;51.100;6.814;2024-01-15T10:17:39;1.90;98.20
4374;DHT22;2201;51.100;6.814;2024-01-15T10:20:15;1.90;98.20
4374;DHT22;2201;51.100;6.814;2024-01-15T10:22:45;1.90;98.20
4374;DHT22;2201;51.100;6.814;2024-01-15T10:25:13;1.90;98.20
4374;DHT22;2201;51.100;6.814;2024-01-15T10:27:59;1.90;98.20
4374;DHT22;2201;51.100;6.814;2024-01-15T10:30:26;1.90;98.20
4374;DHT22;2201;51.100;6.814;2024-01-15T10:32:58;1.90;98.20
4374;DHT22;2201;51.100;6.814;2024-01-15T10:35:30;1.90;98.20
4374;DHT22;2201;51.100;6.814;2024-01-15T10:37:57;2.00;98.20
4374;DHT22;2201;51.100;6.814;2024-01-15T10:40:26;2.00;98.20
4374;DHT22;2201;51.100;6.814;2024-01-15T10:42:57;2.00;98.20
4374;DHT22;2201;51.100;6.814;2024-01-15T10:45:33;2.00;98.20
4374;DHT22;2201;51.100;6.814;2024-01-15T10:48:06;2.00;98.20
4374;DHT22;2201;51.100;6.814;2024-01-15T10:50:39;2.00;98.20
4374;DHT22;2201;51.100;6.814;2024-01-15T10:53:06;2.10;98.20
4374;DHT22;2201;51.100;6.814;2024-01-15T10:55:35;2.10;98.20
4374;DHT22;2201;51.100;6.814;2024-01-15T10:58:04;2.20;98.20
4374;DHT22;2201;51.100;6.814;2024-01-15T11:00:31;2.20;98.20
4374;DHT22;2201;51.100;6.814;2024-01-15T11:03:00;2.20;98.20
4374;DHT22;2201;51.100;6.814;2024-01-15T11:05:27;2.30;98.20
4374;DHT22;2201;51.100;6.814;2024-01-15T11:07:56;2.30;98.20
4374;DHT22;2201;51.100;6.814;2024-01-15T11:10:38;2.30;98.20
4374;DHT22;2201;51.100;6.814;2024-01-15T11:13:09;2.40;98.20
4374;DHT22;2201;51.100;6.814;2024-01-15T11:15:57;2.50;98.20
4374;DHT22;2201;51.100;6.814;2024-01-15T11:18:27;2.50;98.20
4374;DHT22;2201;51.100;6.814;2024-01-15T11:21:19;2.50;98.20
4374;DHT22;2201;51.100;6.814;2024-01-15T11:23:49;2.60;98.20
4374;DHT22;2201;51.100;6.814;2024-01-15T11:26:30;2.60;98.20
4374;DHT22;2201;51.100;6.814;2024-01-15T11:28:59;2.70;98.20
4374;DHT22;2201;51.100;6.814;2024-01-15T11:31:28;2.70;98.20
4374;DHT22;2201;51.100;6.814;2024-01-15T11:33:54;2.70;98.20
4374;DHT22;2201;51.100;6.814;2024-01-15T11:36:21;2.70;98.20
4374;DHT22;2201;51.100;6.814;2024-01-15T11:38:49;2.70;98.20
4374;DHT22;2201;51.100;6.814;2024-01-15T11:41:16;2.70;98.20
4374;DHT22;2201;51.100;6.814;2024-01-15T11:43:43;2.70;98.20
4374;DHT22;2201;51.100;6.814;2024-01-15T11:46:11;2.70;98.20
4374;DHT22;2201;51.100;6.814;2024-01-15T11:48:43;2.80;98.20
4374;DHT22;2201;51.100;6.814;2024-01-15T11:51:11;2.80;98.20
4374;DHT22;2201;51.100;6.814;2024-01-15T11:53:43;2.80;98.20
4374;DHT22;2201;51.100;6.814;2024-01-15T11:56:15;2.90;98.20
4374;DHT22;2201;51.100;6.814;2024-01-15T11:58:43;3.00;98.20
4374;DHT22;2201;51.100;6.814;2024-01-15T12:01:10;3.10;98.20
4374;DHT22;2201;51.100;6.814;2024-01-15T12:03:37;3.20;98.20
4374;DHT22;2201;51.100;6.814;2024-01-15T12:06:05;3.30;98.20
4374;DHT22;2201;51.100;6.814;2024-01-15T12:08:33;3.40;98.20
4374;DHT22;2201;51.100;6.814;2024-01-15T12:11:00;3.40;98.20
4374;DHT22;2201;51.100;6.814;2024-01-15T12:13:29;3.40;98.20
4374;DHT22;2201;51.100;6.814;2024-01-15T12:15:56;3.40;98.20
4374;DHT22;2201;51.100;6.814;2024-01-15T12:18:23;3.40;98.20
4374;DHT22;2201;51.100;6.814;2024-01-15T12:20:54;3.50;98.20
4374;DHT22;2201;51.100;6.814;2024-01-15T12:23:21;3.50;98.20
4374;DHT22;2201;51.100;6.814;2024-01-15T12:25:47;3.50;98.20
4374;DHT22;2201;51.100;6.814;2024-01-15T12:28:15;3.40;98.20
4374;DHT22;2201;51.100;6.814;2024-01-15T12:30:46;3.40;98.20
4374;DHT22;2201;51.100;6.814;2024-01-15T12:33:14;3.30;98.20
4374;DHT22;2201;51.100;6.814;2024-01-15T12:35:41;3.20;98.20
4374;DHT22;2201;51.100;6.814;2024-01-15T12:38:08;3.20;98.20
4374;DHT22;2201;51.100;6.814;2024-01-15T12:40:34;3.10;98.20
4374;DHT22;2201;51.100;6.814;2024-01-15T12:43:01;3.10;98.20
4374;DHT22;2201;51.100;6.814;2024-01-15T12:45:29;3.00;98.20
4374;DHT22;2201;51.100;6.814;2024-01-15T12:47:57;3.00;98.20
4374;DHT22;2201;51.100;6.814;2024-01-15T12:50:24;3.00;98.20
4374;DHT22;2201;51.100;6.814;2024-01-15T12:52:52;3.00;98.20
4374;DHT22;2201;51.100;6.814;2024-01-15T12:55:18;3.00;98.20
4374;DHT22;2201;51.100;6.814;2024-01-15T12:57:45;3.00;98.20
4374;DHT22;2201;51.100;6.814;2024-01-15T13:00:13;3.00;98.20
4374;DHT22;2201;51.100;6.814;2024-01-15T13:02:40;3.00;98.20
4374;DHT22;2201;51.100;6.814;2024-01-15T13:05:10;3.00;98.20
4374;DHT22;2201;51.100;6.814;2024-01-15T13:07:37;3.00;98.20
4374;DHT22;2201;51.100;6.814;2024-01-15T13:10:04;3.00;98.20
4374;DHT22;2201;51.100;6.814;2024-01-15T13:12:31;3.10;98.20
4374;DHT22;2201;51.100;6.814;2024-01-15T13:14:58;3.10;98.20
4374;DHT22;2201;51.100;6.814;2024-01-15T13:17:25;3.10;98.20
4374;DHT22;2201;51.100;6.814;2024-01-15T13:19:52;3.10;98.20
4374;DHT22;2201;51.100;6.814;2024-01-15T13:22:22;3.10;98.20
4374;DHT22;2201;51.100;6.814;2024-01-15T13:24:55;3.10;98.20
4374;DHT22;2201;51.100;6.814;2024-01-15T13:27:22;3.10;98.20
4374;DHT22;2201;51.100;6.814;2024-01-15T13:29:49;3.20;98.20
4374;DHT22;2201;51.100;6.814;2024-01-15T13:32:22;3.20;98.20
4374;DHT22;2201;51.100;6.814;2024-01-15T13:34:49;3.20;98.20
4374;DHT22;2201;51.100;6.814;2024-01-15T13:37:16;3.20;98.20
4374;DHT22;2201;51.100;6.814;2024-01-15T13:39:44;3.20;98.20
4374;DHT22;2201;51.100;6.814;2024-01-15T13:42:11;3.20;98.20
4374;DHT22;2201;51.100;6.814;2024-01-15T13:44:41;3.20;98.20
4374;DHT22;2201;51.100;6.814;2024-01-15T13:47:07;3.20;98.20
4374;DHT22;2201;51.100;6.814;2024-01-15T13:49:39;3.20;98.20
4374;DHT22;2201;51.100;6.814;2024-01-15T13:52:05;3.10;98.20
4374;DHT22;2201;51.100;6.814;2024-01-15T13:54:32;3.10;98.20
4374;DHT22;2201;51.100;6.814;2024-01-15T13:57:00;3.00;98.20
4374;DHT22;2201;51.100;6.814;2024-01-15T13:59:27;3.00;98.20
4374;DHT22;2201;51.100;6.814;2024-01-15T14:01:54;2.90;98.20
4374;DHT22;2201;51.100;6.814;2024-01-15T14:04:21;2.90;98.20
4374;DHT22;2201;51.100;6.814;2024-01-15T14:06:47;2.90;98.20
4374;DHT22;2201;51.100;6.814;2024-01-15T14:09:17;2.90;98.20
4374;DHT22;2201;51.100;6.814;2024-01-15T14:11:44;2.80;98.20
4374;DHT22;2201;51.100;6.814;2024-01-15T14:14:13;2.80;98.20
4374;DHT22;2201;51.100;6.814;2024-01-15T14:16:39;2.70;98.20
4374;DHT22;2201;51.100;6.814;2024-01-15T14:19:06;2.70;98.20
4374;DHT22;2201;51.100;6.814;2024-01-15T14:21:35;2.70;98.20
4374;DHT22;2201;51.100;6.814;2024-01-15T14:24:01;2.70;98.20
4374;DHT22;2201;51.100;6.814;2024-01-15T14:26:29;2.70;98.20
4374;DHT22;2201;51.100;6.814;2024-01-15T14:28:56;2.80;98.20
4374;DHT22;2201;51.100;6.814;2024-01-15T14:31:25;2.80;98.20
4374;DHT22;2201;51.100;6.814;2024-01-15T14:33:53;2.80;98.20
4374;DHT22;2201;51.100;6.814;2024-01-15T14:36:23;2.80;98.20
4374;DHT22;2201;51.100;6.814;2024-01-15T14:38:55;2.80;98.20
4374;DHT22;2201;51.100;6.814;2024-01-15T14:41:25;2.80;98.20
4374;DHT22;2201;51.100;6.814;2024-01-15T14:44:03;2.80;98.20
4374;DHT22;2201;51.100;6.814;2024-01-15T14:46:36;2.70;98.20
4374;DHT22;2201;51.100;6.814;2024-01-15T14:49:03;2.70;98.20
4374;DHT22;2201;51.100;6.814;2024-01-15T14:51:30;2.70;98.20
4374;DHT22;2201;51.100;6.814;2024-01-15T14:53:57;2.70;98.20
4374;DHT22;2201;51.100;6.814;2024-01-15T14:56:57;2.70;98.20
4374;DHT22;2201;51.100;6.814;2024-01-15T14:59:23;2.70;98.20
4374;DHT22;2201;51.100;6.814;2024-01-15T15:01:52;2.60;98.20
4374;DHT22;2201;51.100;6.814;2024-01-15T15:04:24;2.60;98.20
4374;DHT22;2201;51.100;6.814;2024-01-15T15:06:52;2.60;98.20
4374;DHT22;2201;51.100;6.814;2024-01-15T15:09:21;2.60;98.20
4374;DHT22;2201;51.100;6.814;2024-01-15T15:11:48;2.60;98.20
4374;DHT22;2201;51.100;6.814;2024-01-15T15:14:14;2.60;98.20
4374;DHT22;2201;51.100;6.814;2024-01-15T15:16:41;2.50;98.20
4374;DHT22;2201;51.100;6.814;2024-01-15T15:19:13;2.50;98.20
4374;DHT22;2201;51.100;6.814;2024-01-15T15:21:40;2.40;98.20
4374;DHT22;2201;51.100;6.814;2024-01-15T15:24:07;2.40;98.20
4374;DHT22;2201;51.100;6.814;2024-01-15T15:34:25;2.20;98.20
4374;DHT22;2201;51.100;6.814;2024-01-15T15:36:53;2.10;98.20
4374;DHT22;2201;51.100;6.814;2024-01-15T15:42:25;2.10;98.20
4374;DHT22;2201;51.100;6.814;2024-01-15T15:44:52;2.10;98.20
4374;DHT22;2201;51.100;6.814;2024-01-15T15:47:20;2.10;98.20
4374;DHT22;2201;51.100;6.814;2024-01-15T15:49:48;2.00;98.20
4374;DHT22;2201;51.100;6.814;2024-01-15T15:52:15;2.00;98.20
4374;DHT22;2201;51.100;6.814;2024-01-15T15:54:42;2.00;98.20
4374;DHT22;2201;51.100;6.814;2024-01-15T15:57:09;1.90;98.20
4374;DHT22;2201;51.100;6.814;2024-01-15T15:59:36;1.90;98.20
4374;DHT22;2201;51.100;6.814;2024-01-15T16:02:03;1.90;98.20
4374;DHT22;2201;51.100;6.814;2024-01-15T16:04:30;1.90;98.20
4374;DHT22;2201;51.100;6.814;2024-01-15T16:06:58;1.90;98.20
4374;DHT22;2201;51.100;6.814;2024-01-15T16:09:25;1.80;98.20
4374;DHT22;2201;51.100;6.814;2024-01-15T16:12:19;1.80;98.20
4374;DHT22;2201;51.100;6.814;2024-01-15T16:15:00;1.80;98.20
4374;DHT22;2201;51.100;6.814;2024-01-15T16:17:33;1.80;98.20
4374;DHT22;2201;51.100;6.814;2024-01-15T16:23:30;1.80;98.20
4374;DHT22;2201;51.100;6.814;2024-01-15T17:53:12;1.20;98.20
4374;DHT22;2201;51.100;6.814;2024-01-15T17:55:40;1.30;98.20
4374;DHT22;2201;51.100;6.814;2024-01-15T17:58:07;1.30;98.20
4374;DHT22;2201;51.100;6.814;2024-01-15T18:00:41;1.30;98.20
4374;DHT22;2201;51.100;6.814;2024-01-15T18:03:09;1.40;98.20
4374;DHT22;2201;51.100;6.814;2024-01-15T18:05:36;1.40;98.20
4374;DHT22;2201;51.100;6.814;2024-01-15T18:08:18;1.40;98.20
4374;DHT22;2201;51.100;6.814;2024-01-15T18:11:05;1.40;98.20
4374;DHT22;2201;51.100;6.814;2024-01-15T18:13:44;1.40;98.20
4374;DHT22;2201;51.100;6.814;2024-01-15T18:16:11;1.40;98.20
4374;DHT22;2201;51.100;6.814;2024-01-15T18:18:40;1.50;98.20
4374;DHT22;2201;51.100;6.814;2024-01-15T18:21:12;1.40;98.20
4374;DHT22;2201;51.100;6.814;2024-01-15T18:23:51;1.50;98.20
4374;DHT22;2201;51.100;6.814;2024-01-15T18:26:57;1.50;98.20
4374;DHT22;2201;51.100;6.814;2024-01-15T18:29:26;1.50;98.20
4374;DHT22;2201;51.100;6.814;2024-01-15T18:32:03;1.50;98.20
4374;DHT22;2201;51.100;6.814;2024-01-15T18:34:35;1.50;98.20
4374;DHT22;2201;51.100;6.814;2024-01-15T18:37:02;1.50;98.20
4374;DHT22;2201;51.100;6.814;2024-01-15T18:39:31;1.50;98.20
4374;DHT22;2201;51.100;6.814;2024-01-15T18:42:06;1.50;98.20
4374;DHT22;2201;51.100;6.814;2024-01-15T18:44:33;1.50;98.20
4374;DHT22;2201;51.100;6.814;2024-01-15T18:47:00;1.50;98.20
4374;DHT22;2201;51.100;6.814;2024-01-15T18:49:27;1.50;98.20
4374;DHT22;2201;51.100;6.814;2024-01-15T18:51:58;1.50;98.20
4374;DHT22;2201;51.100;6.814;2024-01-15T18:54:32;1.40;98.20
4374;DHT22;2201;51.100;6.814;2024-01-15T18:56:59;1.40;98.20
4374;DHT22;2201;51.100;6.814;2024-01-15T18:59:32;1.30;98.20
4374;DHT22;2201;51.100;6.814;2024-01-15T19:02:01;1.30;98.20
4374;DHT22;2201;51.100;6.814;2024-01-15T19:04:30;1.20;98.20
4374;DHT22;2201;51.100;6.814;2024-01-15T19:06:57;1.20;98.20
4374;DHT22;2201;51.100;6.814;2024-01-15T19:09:24;1.20;98.20
4374;DHT22;2201;51.100;6.814;2024-01-15T19:12:09;1.20;98.20
4374;DHT22;2201;51.100;6.814;2024-01-15T19:14:43;1.20;98.20
4374;DHT22;2201;51.100;6.814;2024-01-15T19:17:30;1.20;98.20
4374;DHT22;2201;51.100;6.814;2024-01-15T19:20:01;1.10;98.20
4374;DHT22;2201;51.100;6.814;2024-01-15T19:22:28;1.10;98.20
4374;DHT22;2201;51.100;6.814;2024-01-15T19:25:01;1.10;98.20
4374;DHT22;2201;51.100;6.814;2024-01-15T19:27:29;1.10;98.20
4374;DHT22;2201;51.100;6.814;2024-01-15T19:29:56;1.10;98.20
4374;DHT22;2201;51.100;6.814;2024-01-15T19:32:23;1.10;98.20
4374;DHT22;2201;51.100;6.814;2024-01-15T19:34:51;1.10;98.20
4374;DHT22;2201;51.100;6.814;2024-01-15T19:37:18;1.10;98.20
4374;DHT22;2201;51.100;6.814;2024-01-15T19:39:45;1.10;98.20
4374;DHT22;2201;51.100;6.814;2024-01-15T19:42:15;1.20;98.20
4374;DHT22;2201;51.100;6.814;2024-01-15T19:44:46;1.20;98.20
4374;DHT22;2201;51.100;6.814;2024-01-15T19:47:24;1.20;98.20
4374;DHT22;2201;51.100;6.814;2024-01-15T19:49:54;1.20;98.20
4374;DHT22;2201;51.100;6.814;2024-01-15T19:52:28;1.20;98.20
4374;DHT22;2201;51.100;6.814;2024-01-15T19:55:06;1.30;98.20
4374;DHT22;2201;51.100;6.814;2024-01-15T19:57:39;1.30;98.20
4374;DHT22;2201;51.100;6.814;2024-01-15T20:00:21;1.20;98.20
4374;DHT22;2201;51.100;6.814;2024-01-15T20:03:11;1.20;98.20
4374;DHT22;2201;51.100;6.814;2024-01-15T20:05:41;1.20;98.20
4374;DHT22;2201;51.100;6.814;2024-01-15T20:08:09;1.20;98.20
4374;DHT22;2201;51.100;6.814;2024-01-15T20:10:41;1.20;98.20
4374;DHT22;2201;51.100;6.814;2024-01-15T20:13:08;1.10;98.20
4374;DHT22;2201;51.100;6.814;2024-01-15T20:15:42;1.20;98.20
4374;DHT22;2201;51.100;6.814;2024-01-15T20:18:14;1.20;98.20
4374;DHT22;2201;51.100;6.814;2024-01-15T20:20:43;1.20;98.20
4374;DHT22;2201;51.100;6.814;2024-01-15T20:23:21;1.20;98.20
4374;DHT22;2201;51.100;6.814;2024-01-15T20:25:50;1.20;98.20
4374;DHT22;2201;51.100;6.814;2024-01-15T20:28:20;1.20;98.20
4374;DHT22;2201;51.100;6.814;2024-01-15T20:30:58;1.20;98.20
4374;DHT22;2201;51.100;6.814;2024-01-15T20:33:28;1.20;98.20
4374;DHT22;2201;51.100;6.814;2024-01-15T20:35:55;1.20;98.20
4374;DHT22;2201;51.100;6.814;2024-01-15T20:38:25;1.10;98.20
4374;DHT22;2201;51.100;6.814;2024-01-15T20:40:57;1.10;98.20
4374;DHT22;2201;51.100;6.814;2024-01-15T20:43:27;1.10;98.20
4374;DHT22;2201;51.100;6.814;2024-01-15T20:45:57;1.10;98.20
4374;DHT22;2201;51.100;6.814;2024-01-15T20:48:24;1.10;98.20
4374;DHT22;2201;51.100;6.814;2024-01-15T20:50:52;1.00;98.20
4374;DHT22;2201;51.100;6.814;2024-01-15T20:53:21;1.00;98.20
4374;DHT22;2201;51.100;6.814;2024-01-15T20:55:48;1.00;98.20
4374;DHT22;2201;51.100;6.814;2024-01-15T20:58:22;1.00;98.20
4374;DHT22;2201;51.100;6.814;2024-01-15T21:00:50;1.00;98.20
4374;DHT22;2201;51.100;6.814;2024-01-15T21:03:52;1.00;98.20
4374;DHT22;2201;51.100;6.814;2024-01-15T21:09:44;0.90;98.20
4374;DHT22;2201;51.100;6.814;2024-01-15T22:16:53;1.30;98.20
4374;DHT22;2201;51.100;6.814;2024-01-15T22:19:26;1.30;98.20
4374;DHT22;2201;51.100;6.814;2024-01-15T22:21:55;1.30;98.20
4374;DHT22;2201;51.100;6.814;2024-01-15T22:24:22;1.30;98.20
4374;DHT22;2201;51.100;6.814;2024-01-15T22:26:49;1.30;98.20
4374;DHT22;2201;51.100;6.814;2024-01-15T22:29:16;1.30;98.20
4374;DHT22;2201;51.100;6.814;2024-01-15T22:31:43;1.30;98.20
4374;DHT22;2201;51.100;6.814;2024-01-15T22:34:11;1.30;98.20
4374;DHT22;2201;51.100;6.814;2024-01-15T22:36:39;1.30;98.20
4374;DHT22;2201;51.100;6.814;2024-01-15T22:39:05;1.40;98.20
4374;DHT22;2201;51.100;6.814;2024-01-15T22:41:32;1.40;98.20
4374;DHT22;2201;51.100;6.814;2024-01-15T22:43:59;1.40;98.20
4374;DHT22;2201;51.100;6.814;2024-01-15T22:46:26;1.40;98.20
4374;DHT22;2201;51.100;6.814;2024-01-15T22:48:53;1.40;98.20
4374;DHT22;2201;51.100;6.814;2024-01-15T22:51:21;1.40;98.20
4374;DHT22;2201;51.100;6.814;2024-01-15T22:53:48;1.40;98.20
4374;DHT22;2201;51.100;6.814;2024-01-15T22:56:21;1.40;98.20
4374;DHT22;2201;51.100;6.814;2024-01-15T22:58:47;1.40;98.20
4374;DHT22;2201;51.100;6.814;2024-01-15T23:01:14;1.40;98.20
4374;DHT22;2201;51.100;6.814;2024-01-15T23:03:46;1.30;98.20
4374;DHT22;2201;51.100;6.814;2024-01-15T23:06:18;1.30;98.20
4374;DHT22;2201;51.100;6.814;2024-01-15T23:08:49;1.30;98.20
4374;DHT22;2201;51.100;6.814;2024-01-15T23:11:15;1.20;98.20
4374;DHT22;2201;51.100;6.814;2024-01-15T23:13:45;1.20;98.20
4374;DHT22;2201;51.100;6.814;2024-01-15T23:16:12;1.20;98.20
4374;DHT22;2201;51.100;6.814;2024-01-15T23:18:42;1.10;98.20
4374;DHT22;2201;51.100;6.814;2024-01-15T23:21:12;1.10;98.20
4374;DHT22;2201;51.100;6.814;2024-01-15T23:23:45;1.10;98.20
4374;DHT22;2201;51.100;6.814;2024-01-15T23:26:28;1.10;98.20
4374;DHT22;2201;51.100;6.814;2024-01-15T23:28:59;1.10;98.20
4374;DHT22;2201;51.100;6.814;2024-01-15T23:31:26;1.20;98.20
4374;DHT22;2201;51.100;6.814;2024-01-15T23:33:58;1.20;98.20
4374;DHT22;2201;51.100;6.814;2024-01-15T23:36:24;1.20;98.20
4374;DHT22;2201;51.100;6.814;2024-01-15T23:38:52;1.20;98.20
4374;DHT22;2201;51.100;6.814;2024-01-15T23:41:19;1.20;98.20
4374;DHT22;2201;51.100;6.814;2024-01-15T23:43:50;1.30;98.20
4374;DHT22;2201;51.100;6.814;2024-01-15T23:46:19;1.30;98.20
4374;DHT22;2201;51.100;6.814;2024-01-15T23:48:50;1.30;98.20